createdAt,value
2023-05-15T00:00:19.693Z,98930.88
2023-05-15T00:01:21.685Z,98923.38
2023-05-15T00:02:23.468Z,98950.41
2023-05-15T00:03:25.294Z,98944.41
2023-05-15T00:04:27.082Z,98943.69
2023-05-15T00:05:28.838Z,98938.03
2023-05-15T00:06:30.459Z,98925.63
2023-05-15T00:07:32.138Z,98939.53
2023-05-15T00:08:33.769Z,98945.16
2023-05-15T00:09:35.412Z,98905.31
2023-05-15T00:10:38.183Z,98940.63
2023-05-15T00:11:39.908Z,98905.66
2023-05-15T00:12:41.526Z,98922.91
2023-05-15T00:13:43.204Z,98917.66
2023-05-15T00:14:44.792Z,98893.28
2023-05-15T00:15:46.471Z,98928.25
2023-05-15T00:16:48.104Z,98922.59
2023-05-15T00:17:49.766Z,98921.88
2023-05-15T00:18:51.561Z,98909.09
2023-05-15T00:19:53.221Z,98915.47
2023-05-15T00:20:54.889Z,98922.22
2023-05-15T00:21:56.495Z,98914.34
2023-05-15T00:22:58.083Z,98920.75
2023-05-15T00:23:59.722Z,98917.75
2023-05-15T00:25:03.407Z,98913.22
2023-05-15T00:26:05.029Z,98882.78
2023-05-15T00:27:06.660Z,98886.16
2023-05-15T00:28:08.276Z,98913.19
2023-05-15T00:29:09.870Z,98910.94
2023-05-15T00:30:12.013Z,98918.81
2023-05-15T00:31:14.256Z,98918.75
2023-05-15T00:32:15.925Z,98914.22
2023-05-15T00:33:17.555Z,98910.47
2023-05-15T00:34:19.189Z,98891.28
2023-05-15T00:35:20.787Z,98894.59
2023-05-15T00:36:22.437Z,98899.47
2023-05-15T00:37:25.769Z,98884.44
2023-05-15T00:38:27.412Z,98889.66
2023-05-15T00:39:29.042Z,98887.81
2023-05-15T00:40:30.719Z,98868.69
2023-05-15T00:41:32.441Z,98883.28
2023-05-15T00:42:34.084Z,98867.59
2023-05-15T00:43:35.720Z,98873.56
2023-05-15T00:44:37.373Z,98873.91
2023-05-15T00:45:39.439Z,98836.06
2023-05-15T00:46:41.116Z,98879.28
2023-05-15T00:47:42.822Z,98883.00
2023-05-15T00:48:44.486Z,98887.53
2023-05-15T00:49:47.314Z,98842.88
2023-05-15T00:50:51.784Z,98878.44
2023-05-15T00:51:53.531Z,98873.59
2023-05-15T00:52:55.243Z,98865.38
2023-05-15T00:53:57.017Z,98864.72
2023-05-15T00:54:58.659Z,98878.63
2023-05-15T00:56:00.304Z,98841.13
2023-05-15T00:57:01.929Z,98862.50
2023-05-15T00:58:03.563Z,98850.50
2023-05-15T00:59:06.715Z,98885.41
2023-05-15T01:00:08.729Z,98878.25
2023-05-15T01:01:11.614Z,98863.22
2023-05-15T01:02:14.440Z,98861.72
2023-05-15T01:03:16.573Z,98861.00
2023-05-15T01:04:18.067Z,98862.13
2023-05-15T01:05:20.537Z,98844.50
2023-05-15T01:06:22.157Z,98849.38
2023-05-15T01:07:23.776Z,98831.31
2023-05-15T01:08:34.868Z,98830.19
2023-05-15T01:09:36.514Z,98855.75
2023-05-15T01:10:38.107Z,98852.75
2023-05-15T01:11:39.776Z,98834.75
2023-05-15T01:12:41.857Z,98802.06
2023-05-15T01:13:43.763Z,98838.47
2023-05-15T01:14:45.482Z,98843.00
2023-05-15T01:15:47.135Z,98840.00
2023-05-15T01:16:48.805Z,98821.59
2023-05-15T01:17:50.885Z,98831.69
2023-05-15T01:18:52.710Z,98847.09
2023-05-15T01:19:54.712Z,98837.72
2023-05-15T01:21:06.593Z,98853.47
2023-05-15T01:22:28.717Z,98826.81
2023-05-15T01:23:49.716Z,98859.50
2023-05-15T01:25:12.339Z,98860.22
2023-05-15T01:26:43.257Z,98865.13
2023-05-15T01:27:49.266Z,98863.22
2023-05-15T01:28:59.112Z,98841.06
2023-05-15T01:30:19.608Z,98879.00
2023-05-15T01:31:22.422Z,98880.50
2023-05-15T01:32:28.305Z,98873.69
2023-05-15T01:33:35.308Z,98859.03
2023-05-15T01:34:52.228Z,98868.75
2023-05-15T01:36:00.160Z,98860.88
2023-05-15T01:37:03.116Z,98871.00
2023-05-15T01:38:13.441Z,98854.84
2023-05-15T01:39:16.193Z,98865.38
2023-05-15T01:40:18.368Z,98831.97
2023-05-15T01:41:45.817Z,98857.13
2023-05-15T01:42:52.209Z,98858.28
2023-05-15T01:43:59.183Z,98824.19
2023-05-15T01:45:05.670Z,98884.66
2023-05-15T01:46:07.314Z,98881.63
2023-05-15T01:47:17.477Z,98883.53
2023-05-15T01:48:19.125Z,98876.03
2023-05-15T01:49:21.484Z,98868.47
2023-05-15T01:50:23.204Z,98839.22
2023-05-15T01:51:24.841Z,98859.84
2023-05-15T01:52:30.716Z,98857.59
2023-05-15T01:53:32.381Z,98870.72
2023-05-15T01:54:33.982Z,98856.47
2023-05-15T01:55:35.608Z,98860.22
2023-05-15T01:56:37.263Z,98858.75
2023-05-15T01:57:38.935Z,98886.53
2023-05-15T01:58:40.581Z,98861.38
2023-05-15T01:59:42.207Z,98841.50
2023-05-15T02:00:43.823Z,98871.50
2023-05-15T02:01:45.469Z,98838.13
2023-05-15T02:02:47.257Z,98882.81
2023-05-15T02:03:48.998Z,98873.78
2023-05-15T02:04:50.746Z,98873.44
2023-05-15T02:05:53.558Z,98880.91
2023-05-15T02:06:55.171Z,98848.63
2023-05-15T02:07:56.829Z,98873.06
2023-05-15T02:08:58.476Z,98825.72
2023-05-15T02:10:00.168Z,98867.81
2023-05-15T02:11:01.864Z,98871.16
2023-05-15T02:12:03.786Z,98880.19
2023-05-15T02:13:07.712Z,98883.53
2023-05-15T02:14:09.500Z,98877.19
2023-05-15T02:15:11.232Z,98825.72
2023-05-15T02:16:13.028Z,98877.56
2023-05-15T02:17:15.266Z,98857.66
2023-05-15T02:18:16.917Z,98839.59
2023-05-15T02:19:18.566Z,98861.78
2023-05-15T02:20:20.249Z,98851.63
2023-05-15T02:21:21.887Z,98870.78
2023-05-15T02:22:23.537Z,98865.88
2023-05-15T02:23:25.183Z,98860.25
2023-05-15T02:24:26.876Z,98874.53
2023-05-15T02:25:59.370Z,98871.53
2023-05-15T02:27:04.511Z,98872.28
2023-05-15T02:28:06.536Z,98861.75
2023-05-15T02:29:21.799Z,98865.91
2023-05-15T02:30:42.936Z,98823.84
2023-05-15T02:32:22.691Z,98862.50
2023-05-15T02:33:38.379Z,98860.97
2023-05-15T02:35:03.291Z,98848.97
2023-05-15T02:36:11.269Z,98847.09
2023-05-15T02:37:14.580Z,98836.97
2023-05-15T02:38:17.205Z,98834.72
2023-05-15T02:39:18.866Z,98846.31
2023-05-15T02:40:20.523Z,98832.44
2023-05-15T02:41:22.178Z,98791.53
2023-05-15T02:42:23.811Z,98829.84
2023-05-15T02:43:25.606Z,98828.69
2023-05-15T02:44:27.224Z,98840.34
2023-05-15T02:45:28.921Z,98827.94
2023-05-15T02:46:30.625Z,98856.47
2023-05-15T02:47:32.278Z,98808.78
2023-05-15T02:48:39.916Z,98820.09
2023-05-15T02:49:41.538Z,98815.94
2023-05-15T02:50:43.682Z,98758.91
2023-05-15T02:51:45.302Z,98850.09
2023-05-15T02:52:46.918Z,98852.38
2023-05-15T02:53:48.549Z,98845.59
2023-05-15T02:54:50.175Z,98850.09
2023-05-15T02:55:52.093Z,98847.47
2023-05-15T02:56:53.885Z,98827.94
2023-05-15T02:57:55.567Z,98804.28
2023-05-15T02:58:57.340Z,98846.34
2023-05-15T02:59:59.115Z,98850.44
2023-05-15T03:01:00.771Z,98848.19
2023-05-15T03:02:02.490Z,98840.34
2023-05-15T03:03:04.278Z,98849.75
2023-05-15T03:04:06.061Z,98839.22
2023-05-15T03:05:08.012Z,98841.09
2023-05-15T03:06:09.741Z,98829.47
2023-05-15T03:07:11.359Z,98787.41
2023-05-15T03:08:12.991Z,98832.03
2023-05-15T03:09:14.618Z,98828.69
2023-05-15T03:10:16.263Z,98827.22
2023-05-15T03:11:17.882Z,98829.44
2023-05-15T03:12:19.526Z,98826.03
2023-05-15T03:13:21.159Z,98828.66
2023-05-15T03:14:22.799Z,98809.13
2023-05-15T03:15:24.719Z,98827.16
2023-05-15T03:16:27.135Z,98830.91
2023-05-15T03:17:28.871Z,98809.13
2023-05-15T03:18:30.562Z,98778.41
2023-05-15T03:19:32.241Z,98823.75
2023-05-15T03:20:33.881Z,98815.13
2023-05-15T03:21:35.565Z,98793.31
2023-05-15T03:22:37.162Z,98810.22
2023-05-15T03:23:38.787Z,98818.88
2023-05-15T03:24:40.492Z,98812.88
2023-05-15T03:25:42.116Z,98811.34
2023-05-15T03:26:43.792Z,98813.22
2023-05-15T03:27:45.392Z,98818.09
2023-05-15T03:28:47.119Z,98808.69
2023-05-15T03:29:48.780Z,98809.84
2023-05-15T03:30:50.387Z,98813.63
2023-05-15T03:31:52.090Z,98742.72
2023-05-15T03:32:56.794Z,98815.81
2023-05-15T03:33:58.458Z,98778.66
2023-05-15T03:35:00.150Z,98768.88
2023-05-15T03:36:01.875Z,98812.03
2023-05-15T03:37:03.554Z,98809.75
2023-05-15T03:38:05.176Z,98811.63
2023-05-15T03:39:07.107Z,98813.13
2023-05-15T03:40:09.026Z,98817.97
2023-05-15T03:41:12.990Z,98817.22
2023-05-15T03:42:14.609Z,98792.44
2023-05-15T03:43:16.244Z,98817.91
2023-05-15T03:44:17.887Z,98813.75
2023-05-15T03:45:21.759Z,98817.16
2023-05-15T03:46:23.676Z,98808.91
2023-05-15T03:47:25.314Z,98712.59
2023-05-15T03:48:27.710Z,98804.81
2023-05-15T03:49:30.612Z,98746.31
2023-05-15T03:50:32.390Z,98795.09
2023-05-15T03:51:34.833Z,98819.47
2023-05-15T03:52:36.248Z,98822.81
2023-05-15T03:53:37.871Z,98822.06
2023-05-15T03:54:39.620Z,98807.13
2023-05-15T03:55:41.252Z,98820.66
2023-05-15T03:56:42.914Z,98821.81
2023-05-15T03:57:44.514Z,98828.22
2023-05-15T03:58:46.136Z,98834.59
2023-05-15T03:59:47.751Z,98826.34
2023-05-15T04:00:49.403Z,98835.75
2023-05-15T04:02:03.466Z,98828.22
2023-05-15T04:03:07.032Z,98823.34
2023-05-15T04:04:08.717Z,98832.66
2023-05-15T04:05:10.505Z,98828.16
2023-05-15T04:06:12.241Z,98825.53
2023-05-15T04:07:13.873Z,98836.47
2023-05-15T04:08:16.123Z,98830.09
2023-05-15T04:09:17.549Z,98831.25
2023-05-15T04:10:19.324Z,98805.31
2023-05-15T04:11:20.966Z,98813.63
2023-05-15T04:12:22.573Z,98834.66
2023-05-15T04:13:24.273Z,98821.88
2023-05-15T04:14:25.875Z,98833.53
2023-05-15T04:15:27.866Z,98828.63
2023-05-15T04:16:29.655Z,98834.66
2023-05-15T04:17:31.360Z,98836.53
2023-05-15T04:18:33.036Z,98829.03
2023-05-15T04:19:34.683Z,98812.16
2023-05-15T04:20:36.319Z,98834.31
2023-05-15T04:21:37.938Z,98807.69
2023-05-15T04:22:39.618Z,98836.97
2023-05-15T04:23:41.274Z,98833.22
2023-05-15T04:24:42.987Z,98836.59
2023-05-15T04:25:44.648Z,98796.03
2023-05-15T04:26:46.256Z,98844.88
2023-05-15T04:27:47.872Z,98838.09
2023-05-15T04:29:02.973Z,98841.47
2023-05-15T04:30:06.533Z,98834.34
2023-05-15T04:31:08.161Z,98818.94
2023-05-15T04:32:09.883Z,98845.19
2023-05-15T04:33:11.713Z,98835.81
2023-05-15T04:34:13.356Z,98821.50
2023-05-15T04:35:15.003Z,98842.94
2023-05-15T04:36:16.618Z,98811.03
2023-05-15T04:37:18.207Z,98830.91
2023-05-15T04:38:19.932Z,98820.38
2023-05-15T04:39:21.575Z,98816.59
2023-05-15T04:40:23.245Z,98819.25
2023-05-15T04:41:24.884Z,98821.13
2023-05-15T04:42:26.529Z,98816.97
2023-05-15T04:43:28.192Z,98819.59
2023-05-15T04:44:29.842Z,98792.59
2023-05-15T04:45:31.497Z,98809.84
2023-05-15T04:46:33.206Z,98808.72
2023-05-15T04:47:35.341Z,98818.91
2023-05-15T04:48:36.868Z,98819.63
2023-05-15T04:49:39.411Z,98810.28
2023-05-15T04:50:41.021Z,98813.66
2023-05-15T04:51:42.633Z,98817.41
2023-05-15T04:52:44.253Z,98823.03
2023-05-15T04:53:45.855Z,98791.91
2023-05-15T04:54:47.495Z,98820.44
2023-05-15T04:55:49.440Z,98815.56
2023-05-15T04:56:51.049Z,98823.78
2023-05-15T04:57:52.675Z,98823.41
2023-05-15T04:58:57.188Z,98806.91
2023-05-15T04:59:58.813Z,98833.94
2023-05-15T05:01:02.748Z,98840.31
2023-05-15T05:02:05.584Z,98825.69
2023-05-15T05:03:10.600Z,98821.16
2023-05-15T05:04:12.323Z,98776.50
2023-05-15T05:05:13.947Z,98781.03
2023-05-15T05:06:15.556Z,98826.03
2023-05-15T05:07:17.295Z,98828.69
2023-05-15T05:08:18.908Z,98832.47
2023-05-15T05:09:20.595Z,98826.44
2023-05-15T05:10:22.225Z,98817.06
2023-05-15T05:11:23.824Z,98813.69
2023-05-15T05:12:26.676Z,98834.72
2023-05-15T05:13:29.578Z,98771.28
2023-05-15T05:14:31.197Z,98829.09
2023-05-15T05:15:32.838Z,98836.22
2023-05-15T05:16:34.754Z,98755.88
2023-05-15T05:17:36.471Z,98808.06
2023-05-15T05:18:38.127Z,98770.91
2023-05-15T05:19:39.745Z,98829.09
2023-05-15T05:20:41.389Z,98834.72
2023-05-15T05:21:43.082Z,98836.22
2023-05-15T05:22:44.698Z,98830.97
2023-05-15T05:23:46.331Z,98835.84
2023-05-15T05:24:47.960Z,98833.22
2023-05-15T05:25:49.572Z,98834.34
2023-05-15T05:26:51.186Z,98851.22
2023-05-15T05:27:52.800Z,98843.00
2023-05-15T05:28:54.429Z,98848.97
2023-05-15T05:29:56.092Z,98843.00
2023-05-15T05:30:57.785Z,98855.75
2023-05-15T05:31:59.517Z,98845.22
2023-05-15T05:33:01.273Z,98860.22
2023-05-15T05:34:02.922Z,98861.00
2023-05-15T05:35:04.847Z,98840.72
2023-05-15T05:36:07.613Z,98855.38
2023-05-15T05:37:09.440Z,98852.34
2023-05-15T05:38:11.041Z,98849.34
2023-05-15T05:39:12.690Z,98843.00
2023-05-15T05:40:14.326Z,98849.72
2023-05-15T05:41:15.956Z,98844.88
2023-05-15T05:42:17.569Z,98852.34
2023-05-15T05:43:19.182Z,98856.50
2023-05-15T05:44:20.835Z,98857.63
2023-05-15T05:45:22.474Z,98851.28
2023-05-15T05:46:24.119Z,98830.22
2023-05-15T05:47:25.886Z,98848.59
2023-05-15T05:48:27.601Z,98848.97
2023-05-15T05:49:29.233Z,98850.50
2023-05-15T05:50:30.864Z,98838.47
2023-05-15T05:51:32.536Z,98848.25
2023-05-15T05:52:34.234Z,98842.63
2023-05-15T05:53:36.963Z,98828.34
2023-05-15T05:54:39.243Z,98840.34
2023-05-15T05:55:40.865Z,98838.47
2023-05-15T05:56:42.613Z,98840.75
2023-05-15T05:57:44.212Z,98825.34
2023-05-15T05:58:45.843Z,98833.22
2023-05-15T05:59:47.490Z,98830.97
2023-05-15T06:00:49.081Z,98844.13
2023-05-15T06:01:50.766Z,98822.72
2023-05-15T06:02:55.236Z,98820.81
2023-05-15T06:03:56.975Z,98838.84
2023-05-15T06:04:58.648Z,98836.25
2023-05-15T06:06:00.240Z,98842.63
2023-05-15T06:07:01.874Z,98812.94
2023-05-15T06:08:03.500Z,98814.06
2023-05-15T06:09:05.123Z,98840.75
2023-05-15T06:10:07.053Z,98766.38
2023-05-15T06:11:08.690Z,98813.69
2023-05-15T06:12:10.725Z,98842.97
2023-05-15T06:13:12.393Z,98833.97
2023-05-15T06:14:14.000Z,98835.84
2023-05-15T06:15:16.182Z,98831.72
2023-05-15T06:16:17.614Z,98844.84
2023-05-15T06:17:19.387Z,98843.75
2023-05-15T06:18:21.012Z,98807.31
2023-05-15T06:19:22.769Z,98839.97
2023-05-15T06:20:24.790Z,98852.75
2023-05-15T06:21:26.546Z,98837.69
2023-05-15T06:22:28.176Z,98849.75
2023-05-15T06:23:29.799Z,98846.38
2023-05-15T06:24:31.461Z,98847.50
2023-05-15T06:25:33.124Z,98847.88
2023-05-15T06:26:34.731Z,98844.13
2023-05-15T06:27:36.362Z,98840.34
2023-05-15T06:28:38.161Z,98843.75
2023-05-15T06:29:39.805Z,98849.75
2023-05-15T06:30:41.562Z,98845.59
2023-05-15T06:31:43.231Z,98857.22
2023-05-15T06:32:44.881Z,98821.22
2023-05-15T06:33:46.590Z,98849.75
2023-05-15T06:34:48.188Z,98839.94
2023-05-15T06:35:49.821Z,98828.69
2023-05-15T06:36:51.484Z,98834.69
2023-05-15T06:37:53.114Z,98839.19
2023-05-15T06:38:54.751Z,98840.38
2023-05-15T06:39:56.401Z,98840.00
2023-05-15T06:40:58.031Z,98853.13
2023-05-15T06:41:59.669Z,98847.88
2023-05-15T06:43:04.492Z,98849.00
2023-05-15T06:44:06.085Z,98835.84
2023-05-15T06:45:08.649Z,98856.53
2023-05-15T06:46:10.296Z,98810.31
2023-05-15T06:47:12.286Z,98861.03
2023-05-15T06:48:14.136Z,98857.25
2023-05-15T06:49:15.796Z,98840.38
2023-05-15T06:50:17.434Z,98855.38
2023-05-15T06:51:19.032Z,98871.91
2023-05-15T06:52:20.737Z,98830.59
2023-05-15T06:53:22.419Z,98871.91
2023-05-15T06:54:24.035Z,98867.03
2023-05-15T06:55:25.876Z,98851.63
2023-05-15T06:56:27.761Z,98865.88
2023-05-15T06:57:29.381Z,98870.38
2023-05-15T06:58:31.014Z,98873.38
2023-05-15T06:59:32.613Z,98842.97
2023-05-15T07:00:34.241Z,98827.22
2023-05-15T07:01:35.872Z,98865.53
2023-05-15T07:02:37.596Z,98872.28
2023-05-15T07:03:39.243Z,98877.53
2023-05-15T07:04:40.903Z,98874.16
2023-05-15T07:05:42.597Z,98863.25
2023-05-15T07:06:44.209Z,98868.50
2023-05-15T07:07:45.854Z,98855.34
2023-05-15T07:08:47.451Z,98865.47
2023-05-15T07:09:49.049Z,98874.13
2023-05-15T07:10:50.691Z,98872.25
2023-05-15T07:11:52.305Z,98880.50
2023-05-15T07:12:53.923Z,98877.47
2023-05-15T07:13:58.348Z,98856.06
2023-05-15T07:15:00.217Z,98870.31
2023-05-15T07:16:02.549Z,98865.44
2023-05-15T07:17:04.352Z,98874.44
2023-05-15T07:18:06.547Z,98863.91
2023-05-15T07:19:10.696Z,98878.22
2023-05-15T07:20:12.423Z,98868.88
2023-05-15T07:21:14.036Z,98876.78
2023-05-15T07:22:15.827Z,98873.78
2023-05-15T07:23:17.478Z,98863.63
2023-05-15T07:24:19.082Z,98891.03
2023-05-15T07:25:20.716Z,98879.38
2023-05-15T07:26:34.320Z,98879.78
2023-05-15T07:27:38.122Z,98889.91
2023-05-15T07:28:39.718Z,98861.00
2023-05-15T07:29:41.336Z,98883.16
2023-05-15T07:30:42.956Z,98890.66
2023-05-15T07:31:44.623Z,98897.81
2023-05-15T07:32:46.347Z,98863.25
2023-05-15T07:33:47.999Z,98873.00
2023-05-15T07:34:49.617Z,98894.41
2023-05-15T07:35:51.260Z,98902.34
2023-05-15T07:36:52.876Z,98892.19
2023-05-15T07:37:54.547Z,98888.81
2023-05-15T07:38:56.166Z,98887.69
2023-05-15T07:39:57.857Z,98885.03
2023-05-15T07:40:59.520Z,98888.44
2023-05-15T07:42:01.115Z,98884.31
2023-05-15T07:43:02.733Z,98870.41
2023-05-15T07:44:04.524Z,98896.66
2023-05-15T07:45:07.225Z,98880.16
2023-05-15T07:46:08.931Z,98880.13
2023-05-15T07:47:10.583Z,98877.13
2023-05-15T07:48:18.659Z,98889.50
2023-05-15T07:49:20.283Z,98882.00
2023-05-15T07:50:21.911Z,98886.53
2023-05-15T07:51:23.574Z,98894.03
2023-05-15T07:52:25.182Z,98890.25
2023-05-15T07:53:26.804Z,98892.47
2023-05-15T07:54:28.507Z,98877.06
2023-05-15T07:55:30.121Z,98880.06
2023-05-15T07:56:32.496Z,98878.56
2023-05-15T07:57:34.135Z,98884.53
2023-05-15T07:58:35.775Z,98878.53
2023-05-15T07:59:37.391Z,98886.00
2023-05-15T08:00:39.064Z,98878.84
2023-05-15T08:01:40.687Z,98878.47
2023-05-15T08:02:42.364Z,98874.72
2023-05-15T08:03:44.310Z,98881.13
2023-05-15T08:04:46.049Z,98881.84
2023-05-15T08:05:47.720Z,98887.91
2023-05-15T08:06:49.320Z,98874.72
2023-05-15T08:07:50.956Z,98883.34
2023-05-15T08:08:52.582Z,98861.13
2023-05-15T08:09:54.207Z,98861.50
2023-05-15T08:10:57.936Z,98869.78
2023-05-15T08:12:20.610Z,98825.50
2023-05-15T08:13:22.255Z,98867.91
2023-05-15T08:14:23.899Z,98877.19
2023-05-15T08:15:25.640Z,98870.00
2023-05-15T08:16:27.605Z,98856.38
2023-05-15T08:17:29.330Z,98844.75
2023-05-15T08:18:31.082Z,98853.34
2023-05-15T08:19:32.718Z,98843.56
2023-05-15T08:20:34.317Z,98841.41
2023-05-15T08:21:35.972Z,98857.59
2023-05-15T08:22:37.587Z,98862.47
2023-05-15T08:23:39.263Z,98859.09
2023-05-15T08:24:40.932Z,98835.72
2023-05-15T08:25:42.581Z,98838.03
2023-05-15T08:26:44.429Z,98852.97
2023-05-15T08:27:46.049Z,98824.47
2023-05-15T08:28:47.741Z,98842.53
2023-05-15T08:29:49.363Z,98860.09
2023-05-15T08:30:51.031Z,98843.47
2023-05-15T08:31:52.820Z,98870.81
2023-05-15T08:32:54.612Z,98857.25
2023-05-15T08:33:56.269Z,98860.94
2023-05-15T08:34:57.918Z,98853.41
2023-05-15T08:35:59.602Z,98857.25
2023-05-15T08:37:01.299Z,98853.56
2023-05-15T08:38:02.945Z,98862.53
2023-05-15T08:39:04.551Z,98856.50
2023-05-15T08:40:06.559Z,98829.16
2023-05-15T08:41:14.332Z,98857.72
2023-05-15T08:42:27.597Z,98867.81
2023-05-15T08:43:29.256Z,98865.47
2023-05-15T08:44:30.924Z,98850.72
2023-05-15T08:45:32.590Z,98844.00
2023-05-15T08:46:34.758Z,98853.31
2023-05-15T08:47:39.196Z,98843.53
2023-05-15T08:48:40.873Z,98854.72
2023-05-15T08:49:54.170Z,98855.75
2023-05-15T08:50:57.240Z,98865.50
2023-05-15T08:51:58.845Z,98849.09
2023-05-15T08:53:00.542Z,98867.13
2023-05-15T08:54:02.175Z,98859.59
2023-05-15T08:55:04.261Z,98885.03
2023-05-15T08:56:05.771Z,98861.47
2023-05-15T08:57:07.379Z,98877.56
2023-05-15T08:58:09.174Z,98863.28
2023-05-15T08:59:10.843Z,98846.63
2023-05-15T09:00:12.977Z,98883.00
2023-05-15T09:01:14.451Z,98859.22
2023-05-15T09:02:16.169Z,98865.31
2023-05-15T09:03:17.852Z,98840.19
2023-05-15T09:04:19.515Z,98853.13
2023-05-15T09:05:21.219Z,98842.88
2023-05-15T09:06:22.850Z,98836.53
2023-05-15T09:07:24.454Z,98837.22
2023-05-15T09:08:26.089Z,98849.66
2023-05-15T09:09:27.957Z,98877.69
2023-05-15T09:10:29.593Z,98846.53
2023-05-15T09:11:31.240Z,98842.91
2023-05-15T09:12:33.464Z,98848.91
2023-05-15T09:13:35.165Z,98822.91
2023-05-15T09:14:36.798Z,98834.13
2023-05-15T09:15:38.411Z,98848.38
2023-05-15T09:16:40.107Z,98816.84
2023-05-15T09:17:41.788Z,98849.22
2023-05-15T09:18:43.665Z,98827.31
2023-05-15T09:19:45.406Z,98829.53
2023-05-15T09:20:47.021Z,98865.22
2023-05-15T09:21:48.770Z,98852.84
2023-05-15T09:22:50.397Z,98869.94
2023-05-15T09:23:55.585Z,98862.59
2023-05-15T09:24:57.207Z,98876.38
2023-05-15T09:25:58.855Z,98881.25
2023-05-15T09:27:01.945Z,98860.19
2023-05-15T09:28:03.712Z,98870.34
2023-05-15T09:29:05.666Z,98859.63
2023-05-15T09:30:10.427Z,98883.38
2023-05-15T09:31:12.045Z,98880.13
2023-05-15T09:32:14.362Z,98873.47
2023-05-15T09:33:16.831Z,98883.19
2023-05-15T09:34:18.479Z,98885.84
2023-05-15T09:35:36.811Z,98883.34
2023-05-15T09:36:42.772Z,98893.09
2023-05-15T09:37:44.384Z,98881.84
2023-05-15T09:38:46.013Z,98876.56
2023-05-15T09:39:47.646Z,98873.19
2023-05-15T09:40:49.239Z,98873.66
2023-05-15T09:41:51.579Z,98890.09
2023-05-15T09:42:53.217Z,98893.13
2023-05-15T09:43:55.330Z,98849.53
2023-05-15T09:44:56.782Z,98882.16
2023-05-15T09:45:58.531Z,98877.16
2023-05-15T09:47:00.559Z,98866.03
2023-05-15T09:48:05.953Z,98859.00
2023-05-15T09:49:07.633Z,98892.03
2023-05-15T09:50:09.432Z,98861.00
2023-05-15T09:51:17.880Z,98859.78
2023-05-15T09:52:19.491Z,98877.78
2023-05-15T09:53:21.769Z,98881.94
2023-05-15T09:54:23.293Z,98883.00
2023-05-15T09:55:25.137Z,98879.03
2023-05-15T09:56:27.313Z,98853.41
2023-05-15T09:57:28.951Z,98857.03
2023-05-15T09:58:30.555Z,98848.72
2023-05-15T09:59:32.174Z,98857.84
2023-05-15T10:00:34.585Z,98867.03
2023-05-15T10:01:36.297Z,98871.66
2023-05-15T10:02:40.155Z,98859.31
2023-05-15T10:03:41.827Z,98836.38
2023-05-15T10:04:43.469Z,98869.16
2023-05-15T10:05:45.297Z,98861.69
2023-05-15T10:06:47.777Z,98851.06
2023-05-15T10:07:51.364Z,98877.88
2023-05-15T10:08:53.693Z,98845.69
2023-05-15T10:09:55.330Z,98873.28
2023-05-15T10:10:59.193Z,98850.75
2023-05-15T10:12:00.833Z,98848.28
2023-05-15T10:13:02.462Z,98847.78
2023-05-15T10:14:07.993Z,98883.56
2023-05-15T10:15:09.961Z,98863.69
2023-05-15T10:16:11.710Z,98856.72
2023-05-15T10:17:13.410Z,98861.97
2023-05-15T10:18:15.050Z,98863.84
2023-05-15T10:19:16.784Z,98851.03
2023-05-15T10:20:19.898Z,98858.03
2023-05-15T10:21:21.527Z,98838.22
2023-05-15T10:22:23.303Z,98838.28
2023-05-15T10:23:24.938Z,98850.63
2023-05-15T10:24:26.559Z,98864.59
2023-05-15T10:25:33.860Z,98853.69
2023-05-15T10:26:36.391Z,98841.41
2023-05-15T10:27:38.055Z,98843.28
2023-05-15T10:28:39.838Z,98818.00
2023-05-15T10:29:41.500Z,98842.84
2023-05-15T10:30:43.090Z,98849.50
2023-05-15T10:31:44.798Z,98855.63
2023-05-15T10:32:46.590Z,98839.53
2023-05-15T10:33:48.217Z,98828.84
2023-05-15T10:34:52.342Z,98856.91
2023-05-15T10:35:53.952Z,98841.50
2023-05-15T10:36:55.621Z,98835.97
2023-05-15T10:37:57.335Z,98836.28
2023-05-15T10:39:02.733Z,98847.53
2023-05-15T10:40:04.948Z,98863.56
2023-05-15T10:41:16.622Z,98849.38
2023-05-15T10:42:19.520Z,98833.47
2023-05-15T10:43:21.468Z,98838.56
2023-05-15T10:44:23.430Z,98818.59
2023-05-15T10:45:25.082Z,98812.06
2023-05-15T10:46:27.428Z,98822.19
2023-05-15T10:47:32.114Z,98821.81
2023-05-15T10:48:33.756Z,98791.22
2023-05-15T10:49:35.363Z,98831.25
2023-05-15T10:50:37.087Z,98833.13
2023-05-15T10:51:38.757Z,98828.84
2023-05-15T10:52:40.544Z,98850.63
2023-05-15T10:53:43.298Z,98856.16
2023-05-15T10:54:45.167Z,98819.13
2023-05-15T10:55:49.204Z,98835.13
2023-05-15T10:56:52.217Z,98824.13
2023-05-15T10:57:54.138Z,98826.44
2023-05-15T10:58:55.759Z,98829.25
2023-05-15T10:59:57.389Z,98822.53
2023-05-15T11:00:59.035Z,98790.75
2023-05-15T11:02:23.125Z,98830.34
2023-05-15T11:03:48.041Z,98785.81
2023-05-15T11:04:57.894Z,98834.91
2023-05-15T11:06:12.170Z,98801.41
2023-05-15T11:07:14.302Z,98845.00
2023-05-15T11:08:15.885Z,98836.56
2023-05-15T11:09:33.943Z,98810.03
2023-05-15T11:10:36.371Z,98847.00
2023-05-15T11:11:53.457Z,98852.13
2023-05-15T11:12:55.601Z,98828.91
2023-05-15T11:14:05.717Z,98846.63
2023-05-15T11:15:10.251Z,98864.03
2023-05-15T11:16:12.897Z,98860.69
2023-05-15T11:17:15.766Z,98825.81
2023-05-15T11:18:17.620Z,98864.88
2023-05-15T11:19:25.543Z,98823.78
2023-05-15T11:20:54.694Z,98822.81
2023-05-15T11:22:00.378Z,98822.72
2023-05-15T11:23:02.004Z,98814.16
2023-05-15T11:24:03.945Z,98799.72
2023-05-15T11:25:11.568Z,98805.78
2023-05-15T11:26:13.527Z,98789.41
2023-05-15T11:27:38.854Z,98798.63
2023-05-15T11:28:43.448Z,98802.69
2023-05-15T11:30:16.711Z,98826.09
2023-05-15T11:31:18.409Z,98812.31
2023-05-15T11:33:01.931Z,98797.06
2023-05-15T11:34:06.380Z,98776.94
2023-05-15T11:35:18.656Z,98787.22
2023-05-15T11:36:23.395Z,98788.78
2023-05-15T11:37:25.145Z,98804.72
2023-05-15T11:38:26.939Z,98782.44
2023-05-15T11:39:28.548Z,98788.00
2023-05-15T11:40:31.440Z,98771.88
2023-05-15T11:41:33.078Z,98787.75
2023-05-15T11:42:34.688Z,98776.47
2023-05-15T11:43:36.330Z,98777.13
2023-05-15T11:44:37.940Z,98774.53
2023-05-15T11:45:39.758Z,98782.16
2023-05-15T11:46:41.725Z,98800.28
2023-05-15T11:47:43.378Z,98811.91
2023-05-15T11:48:48.211Z,98801.66
2023-05-15T11:49:49.906Z,98806.69
2023-05-15T11:50:51.651Z,98807.00
2023-05-15T11:51:53.476Z,98783.16
2023-05-15T11:52:55.123Z,98794.72
2023-05-15T11:53:57.046Z,98793.50
2023-05-15T11:54:59.530Z,98786.97
2023-05-15T11:56:01.156Z,98799.78
2023-05-15T11:57:02.796Z,98785.00
2023-05-15T11:58:05.302Z,98793.41
2023-05-15T11:59:06.953Z,98817.97
2023-05-15T12:00:09.086Z,98812.94
2023-05-15T12:01:11.127Z,98806.97
2023-05-15T12:02:15.534Z,98784.78
2023-05-15T12:03:18.837Z,98795.66
2023-05-15T12:04:23.353Z,98806.78
2023-05-15T12:05:25.096Z,98809.41
2023-05-15T12:06:26.705Z,98816.41
2023-05-15T12:07:28.312Z,98784.34
2023-05-15T12:08:36.070Z,98789.03
2023-05-15T12:09:39.332Z,98775.88
2023-05-15T12:10:43.066Z,98803.41
2023-05-15T12:11:54.102Z,98800.56
2023-05-15T12:12:56.045Z,98801.06
2023-05-15T12:13:57.708Z,98793.00
2023-05-15T12:15:00.319Z,98793.84
2023-05-15T12:16:02.924Z,98791.88
2023-05-15T12:17:04.790Z,98745.47
2023-05-15T12:18:07.199Z,98771.41
2023-05-15T12:19:08.888Z,98798.06
2023-05-15T12:20:16.851Z,98791.81